Time;durP1;ratioP1;P1;durP2;ratioP2;P2;SDS_P1;SDS_P2;PMS_P1;PMS_P2;Temp;Humidity;BMP_temperature;BMP_pressure;BME280_temperature;BME280_humidity;BME280_pressure;Samples;Min_cycle;Max_cycle;Signal;HPM_P1;HPM_P2
2022/08/15 00:01:14;;;;;;;7.43;5.53;;;;;;;19.14;75.00;94620.91;5082632;28;20100;-78
2022/08/15 00:03:44;;;;;;;11.80;6.22;;;;;;;19.15;75.51;94627.81;5083538;28;20044;-78
2022/08/15 00:06:15;;;;;;;7.03;5.22;;;;;;;19.07;75.75;94625.31;5081573;28;20119;-77
2022/08/15 00:08:46;;;;;;;7.20;5.40;;;;;;;18.99;75.52;94619.03;5086983;28;20486;-78
2022/08/15 00:11:15;;;;;;;8.05;5.15;;;;;;;19.00;76.70;94628.56;5086240;28;20036;-77
2022/08/15 00:13:44;;;;;;;8.95;5.80;;;;;;;18.98;76.21;94612.16;5079776;28;20050;-77
2022/08/15 00:16:13;;;;;;;8.15;5.80;;;;;;;19.02;75.36;94618.31;5086879;28;20040;-77
2022/08/15 00:18:40;;;;;;;6.82;5.35;;;;;;;19.08;73.14;94616.16;5084804;28;20094;-78
2022/08/15 00:21:06;;;;;;;7.60;5.43;;;;;;;18.91;75.36;94618.09;5085552;28;20070;-77
2022/08/15 00:23:32;;;;;;;8.05;5.85;;;;;;;18.84;76.11;94618.66;5092572;28;20036;-77
2022/08/15 00:26:00;;;;;;;8.93;5.70;;;;;;;18.84;75.85;94623.97;5090214;28;20037;-77
2022/08/15 00:28:27;;;;;;;8.23;5.43;;;;;;;18.80;76.64;94623.13;5083807;28;20037;-77
2022/08/15 00:30:54;;;;;;;7.20;5.40;;;;;;;18.83;76.86;94619.00;5083544;28;20036;-77
2022/08/15 00:33:20;;;;;;;7.03;5.43;;;;;;;18.70;77.80;94628.97;5078035;28;20041;-77
2022/08/15 00:35:48;;;;;;;8.27;5.60;;;;;;;18.60;78.90;94629.47;5080135;28;20480;-78
2022/08/15 00:38:18;;;;;;;7.78;5.57;;;;;;;18.67;78.98;94621.66;5091979;28;20422;-77
2022/08/15 00:43:43;;;;;;;7.10;5.30;;;;;;;18.53;80.10;94624.72;5080445;28;20044;-77
2022/08/15 00:46:11;;;;;;;7.47;5.78;;;;;;;18.44;80.45;94624.88;5091814;28;20040;-78
2022/08/15 00:48:43;;;;;;;7.43;5.43;;;;;;;18.43;80.79;94630.53;5079417;28;20558;-78
2022/08/15 00:51:39;;;;;;;8.15;5.75;;;;;;;18.37;80.56;94622.03;5079835;28;20040;-77
2022/08/15 00:54:17;;;;;;;7.32;5.25;;;;;;;18.33;80.69;94621.16;5077720;28;20051;-78
2022/08/15 00:57:11;;;;;;;7.55;5.78;;;;;;;18.28;81.22;94616.09;5090927;28;20494;-78
2022/08/15 01:00:18;;;;;;;7.82;5.78;;;;;;;18.36;81.73;94625.81;5078054;28;20502;-78
2022/08/15 01:02:45;;;;;;;7.65;5.75;;;;;;;18.32;81.95;94620.38;5024099;28;20503;-78
2022/08/15 01:05:12;;;;;;;8.50;5.88;;;;;;;18.28;82.24;94624.84;5076509;28;20063;-78
2022/08/15 01:07:38;;;;;;;8.52;5.60;;;;;;;18.21;81.35;94623.88;5081046;28;20040;-79
2022/08/15 01:10:07;;;;;;;8.30;5.97;;;;;;;18.14;82.50;94624.47;5087605;28;20778;-78
2022/08/15 01:12:33;;;;;;;8.75;5.55;;;;;;;18.02;83.28;94627.94;5079987;28;20541;-77
2022/08/15 01:15:05;;;;;;;7.38;5.63;;;;;;;18.02;83.68;94629.84;5084545;28;20044;-78
2022/08/15 01:17:32;;;;;;;8.38;5.63;;;;;;;17.93;83.04;94624.63;5083561;28;20043;-78
2022/08/15 01:20:11;;;;;;;8.70;5.82;;;;;;;18.05;83.53;94621.94;5079216;28;20043;-77
2022/08/15 01:23:09;;;;;;;7.25;5.50;;;;;;;18.02;83.71;94622.63;5083036;28;20533;-78
2022/08/15 01:25:40;;;;;;;9.52;6.30;;;;;;;17.94;84.18;94626.19;5085685;28;20521;-78
2022/08/15 01:28:16;;;;;;;9.07;5.82;;;;;;;17.91;84.68;94616.22;5088995;28;20097;-77
2022/08/15 01:30:49;;;;;;;8.70;6.07;;;;;;;17.90;85.29;94619.97;5085478;28;20375;-77
2022/08/15 01:33:15;;;;;;;9.43;6.03;;;;;;;17.74;85.95;94620.69;5081325;28;20518;-78
2022/08/15 01:35:42;;;;;;;8.85;6.00;;;;;;;17.86;86.13;94619.09;5082324;28;20031;-78
2022/08/15 01:38:23;;;;;;;7.95;5.88;;;;;;;17.87;85.82;94623.31;5082260;28;20109;-77
2022/08/15 01:41:03;;;;;;;8.40;5.95;;;;;;;17.91;85.87;94629.53;5093013;28;20515;-78
2022/08/15 01:43:36;;;;;;;8.90;6.05;;;;;;;17.89;86.46;94621.09;5078247;28;20049;-78
2022/08/15 01:46:06;;;;;;;9.90;5.78;;;;;;;17.90;86.33;94627.94;5090450;28;20062;-78
2022/08/15 01:48:44;;;;;;;9.48;6.25;;;;;;;17.94;86.33;94626.19;5080310;28;20038;-77
2022/08/15 01:51:12;;;;;;;7.78;5.75;;;;;;;17.91;86.52;94632.19;5094762;28;20451;-78
2022/08/15 01:53:50;;;;;;;9.00;5.90;;;;;;;17.86;86.88;94632.38;5088785;28;20040;-77
2022/08/15 01:56:32;;;;;;;8.20;6.05;;;;;;;17.81;86.64;94633.41;5082459;28;20040;-77
2022/08/15 01:59:01;;;;;;;9.15;5.70;;;;;;;17.81;86.60;94633.41;5085580;28;20044;-78
2022/08/15 02:01:43;;;;;;;12.75;6.07;;;;;;;17.84;85.24;94628.19;5078035;28;20052;-77
2022/08/15 02:04:10;;;;;;;9.30;5.88;;;;;;;17.80;84.98;94622.00;5082901;28;20420;-78
2022/08/15 02:06:36;;;;;;;9.25;5.68;;;;;;;17.82;85.02;94619.75;5082420;28;20036;-77
2022/08/15 02:09:05;;;;;;;8.10;5.75;;;;;;;17.87;86.68;94620.66;5087598;28;20044;-78
2022/08/15 02:11:30;;;;;;;7.97;5.47;;;;;;;17.93;85.52;94629.97;5081703;28;20087;-77
2022/08/15 02:13:57;;;;;;;9.00;5.57;;;;;;;17.91;85.15;94642.84;5082510;28;20044;-77
2022/08/15 02:16:26;;;;;;;12.20;5.40;;;;;;;17.92;85.25;94644.41;5081397;28;20438;-78
2022/08/15 02:18:52;;;;;;;10.52;5.45;;;;;;;17.90;85.51;94646.59;5085156;28;20044;-77
2022/08/15 02:21:18;;;;;;;6.75;5.43;;;;;;;17.89;84.76;94650.38;5076535;28;20047;-77
2022/08/15 02:23:44;;;;;;;8.00;5.05;;;;;;;17.87;84.41;94642.72;5081824;28;20043;-78
2022/08/15 02:26:10;;;;;;;6.43;4.78;;;;;;;18.00;84.71;94646.94;5077731;28;20409;-77
2022/08/15 02:28:39;;;;;;;12.07;5.20;;;;;;;18.06;82.80;94634.16;5084822;28;20756;-77
2022/08/15 02:31:18;;;;;;;8.27;4.82;;;;;;;18.18;80.97;94646.63;5078623;28;20081;-77
2022/08/15 02:33:48;;;;;;;9.68;4.78;;;;;;;18.25;80.05;94640.75;5082997;28;20109;-77
2022/08/15 02:36:16;;;;;;;9.55;5.00;;;;;;;18.33;79.43;94629.16;5080074;28;20127;-77
2022/08/15 02:38:43;;;;;;;7.82;5.00;;;;;;;18.33;82.20;94642.47;5074281;28;20099;-77
2022/08/15 02:41:09;;;;;;;8.15;4.70;;;;;;;18.38;79.67;94634.25;5086821;28;20048;-78
2022/08/15 02:43:43;;;;;;;7.43;5.03;;;;;;;18.38;80.54;94634.25;5082057;28;20430;-78
2022/08/15 02:46:10;;;;;;;8.40;5.07;;;;;;;18.34;82.27;94633.38;5079553;28;20163;-78
2022/08/15 02:48:38;;;;;;;7.20;5.05;;;;;;;18.33;82.75;94631.81;5084011;28;20036;-78
2022/08/15 02:51:08;;;;;;;9.48;4.97;;;;;;;18.31;80.53;94631.38;5082523;28;20151;-78
2022/08/15 02:53:34;;;;;;;9.45;4.78;;;;;;;18.26;82.87;94636.94;5086458;28;20043;-77
2022/08/15 02:56:00;;;;;;;6.55;4.82;;;;;;;18.33;82.36;94637.13;5073236;28;20583;-77
2022/08/15 02:58:26;;;;;;;7.70;5.03;;;;;;;18.32;81.47;94643.59;5078839;28;20094;-78
2022/08/15 03:00:52;;;;;;;6.25;4.85;;;;;;;18.29;82.53;94646.94;5078851;28;20509;-78
2022/08/15 03:03:19;;;;;;;6.68;4.82;;;;;;;18.33;82.13;94637.13;5088057;28;20516;-77
2022/08/15 03:05:47;;;;;;;8.30;4.75;;;;;;;18.40;81.03;94637.31;5085173;28;20057;-77
2022/08/15 03:08:13;;;;;;;8.30;4.65;;;;;;;18.51;79.58;94643.72;5082142;28;20036;-78
2022/08/15 03:10:39;;;;;;;7.40;4.53;;;;;;;18.57;79.69;94640.81;5084200;28;20047;-78
2022/08/15 03:13:11;;;;;;;6.22;4.40;;;;;;;18.61;79.21;94641.69;5080652;28;20049;-78
2022/08/15 03:15:52;;;;;;;9.85;4.65;;;;;;;18.67;78.23;94645.63;5086191;28;20539;-78
2022/08/15 03:18:22;;;;;;;6.47;4.30;;;;;;;18.71;77.84;94651.84;5078025;28;20045;-77
2022/08/15 03:20:51;;;;;;;9.13;4.30;;;;;;;18.77;76.94;94655.78;5087430;28;20036;-78
2022/08/15 03:23:18;;;;;;;9.85;4.60;;;;;;;18.90;75.98;94648.53;5089029;28;20101;-77
2022/08/15 03:25:49;;;;;;;7.22;4.20;;;;;;;19.00;75.06;94652.56;5079084;28;20041;-79
2022/08/15 03:28:17;;;;;;;5.88;3.85;;;;;;;19.07;74.37;94658.06;5089738;28;20044;-78
2022/08/15 03:30:43;;;;;;;6.55;4.07;;;;;;;19.19;73.31;94650.00;5076601;28;20086;-77
2022/08/15 03:33:08;;;;;;;7.57;3.97;;;;;;;19.14;73.37;94650.25;5081172;28;20048;-78
2022/08/15 03:35:45;;;;;;;7.57;4.20;;;;;;;19.24;73.01;94656.16;5082345;28;20059;-78
2022/08/15 03:38:12;;;;;;;9.02;4.30;;;;;;;19.25;72.84;94645.16;5088986;28;20070;-78
2022/08/15 03:40:39;;;;;;;7.63;4.05;;;;;;;19.36;72.34;94659.50;5081035;28;20555;-78
2022/08/15 03:43:21;;;;;;;6.50;4.15;;;;;;;19.41;71.97;94661.16;5088554;28;20460;-78
2022/08/15 03:45:53;;;;;;;7.63;4.50;;;;;;;19.45;71.65;94661.22;5086948;28;20509;-78
2022/08/15 03:48:21;;;;;;;5.50;4.00;;;;;;;19.46;71.47;94662.78;5090147;28;20044;-78
2022/08/15 03:50:47;;;;;;;6.28;4.22;;;;;;;19.54;71.36;94665.25;5083505;28;20036;-78
2022/08/15 03:53:13;;;;;;;8.82;4.10;;;;;;;19.53;71.26;94666.38;5087387;28;20075;-77
2022/08/15 03:55:40;;;;;;;6.80;4.30;;;;;;;19.61;70.76;94674.53;5084455;28;20045;-78
2022/08/15 03:58:06;;;;;;;7.13;4.07;;;;;;;19.61;71.26;94670.00;5083557;28;20159;-78
2022/08/15 04:00:36;;;;;;;8.27;4.00;;;;;;;19.61;70.89;94669.19;5088372;28;20032;-78
2022/08/15 04:03:03;;;;;;;6.57;3.95;;;;;;;19.54;71.60;94673.25;5092844;28;20036;-77
2022/08/15 04:05:30;;;;;;;7.55;3.88;;;;;;;19.59;71.17;94672.22;5085982;28;20119;-76
2022/08/15 04:07:56;;;;;;;8.10;3.70;;;;;;;19.61;71.31;94674.53;5089834;28;20058;-78
2022/08/15 04:10:21;;;;;;;8.82;3.90;;;;;;;19.70;71.06;94680.47;5089709;28;20044;-76
2022/08/15 04:12:47;;;;;;;5.03;3.45;;;;;;;19.68;71.14;94680.03;5092009;28;20436;-77
2022/08/15 04:15:15;;;;;;;5.57;3.95;;;;;;;19.69;70.89;94682.34;5092888;28;20044;-78
2022/08/15 04:17:42;;;;;;;8.65;3.50;;;;;;;19.77;70.90;94682.50;5086338;28;20032;-78
2022/08/15 04:20:10;;;;;;;10.32;4.43;;;;;;;19.74;71.06;94695.44;5079819;28;20070;-77
2022/08/15 04:22:49;;;;;;;6.93;3.80;;;;;;;19.70;71.47;94688.47;5081763;28;20035;-77
2022/08/15 04:25:22;;;;;;;7.50;4.20;;;;;;;19.77;71.33;94693.97;5081783;28;20063;-77
2022/08/15 04:27:53;;;;;;;5.60;3.70;;;;;;;19.72;71.59;94694.22;5080215;28;20067;-77
2022/08/15 04:30:22;;;;;;;5.88;3.90;;;;;;;19.72;72.00;94696.91;5086373;28;20044;-80
2022/08/15 04:32:49;;;;;;;6.22;3.78;;;;;;;19.77;72.15;94696.66;5088586;28;20417;-78
2022/08/15 04:35:15;;;;;;;7.15;3.60;;;;;;;19.74;72.53;94694.69;5089051;28;20047;-78
2022/08/15 04:37:41;;;;;;;7.75;3.72;;;;;;;19.76;72.92;94700.44;5090800;28;20047;-78
2022/08/15 04:40:12;;;;;;;5.68;3.88;;;;;;;19.76;72.53;94697.75;5078888;28;20421;-77
2022/08/15 04:42:55;;;;;;;7.97;3.60;;;;;;;19.73;73.02;94704.56;5085805;28;20036;-78
2022/08/15 04:45:22;;;;;;;5.93;3.30;;;;;;;19.66;73.03;94693.72;5079232;28;20044;-78
2022/08/15 04:47:50;;;;;;;8.30;3.65;;;;;;;19.67;73.58;94705.19;5086093;28;20115;-77
2022/08/15 04:50:15;;;;;;;10.13;4.05;;;;;;;19.64;73.88;94697.84;5086975;28;20039;-78
2022/08/15 04:52:48;;;;;;;7.20;3.70;;;;;;;19.60;74.41;94703.13;5083188;28;20421;-76
2022/08/15 04:55:14;;;;;;;6.63;3.67;;;;;;;19.59;75.12;94703.47;5086555;28;20036;-76
2022/08/15 04:57:41;;;;;;;5.18;3.80;;;;;;;19.43;76.65;94706.94;5086085;28;20041;-76
2022/08/15 05:00:10;;;;;;;5.78;3.65;;;;;;;19.42;77.73;94708.03;5084397;28;20528;-76
2022/08/15 05:02:38;;;;;;;6.43;3.45;;;;;;;19.32;79.10;94708.56;5091485;28;20044;-76
2022/08/15 05:05:06;;;;;;;6.97;3.85;;;;;;;19.25;80.21;94711.06;5096311;28;20115;-77
2022/08/15 05:07:31;;;;;;;5.65;4.13;;;;;;;19.16;80.80;94708.56;5088340;28;20436;-77
2022/08/15 05:09:59;;;;;;;8.98;3.88;;;;;;;19.05;81.98;94713.66;5092241;28;20053;-76
2022/08/15 05:12:24;;;;;;;5.55;4.03;;;;;;;19.05;82.50;94708.31;5080177;28;20064;-76
2022/08/15 05:14:50;;;;;;;8.10;3.90;;;;;;;18.98;83.07;94708.13;5085764;28;20051;-77
2022/08/15 05:17:16;;;;;;;6.82;4.07;;;;;;;18.98;83.93;94713.47;5094190;28;20036;-76
2022/08/15 05:19:42;;;;;;;10.15;3.92;;;;;;;19.01;83.85;94718.13;5081166;28;20182;-76
2022/08/15 05:22:09;;;;;;;8.52;4.30;;;;;;;19.03;83.96;94705.19;5085034;28;20044;-76
2022/08/15 05:24:36;;;;;;;7.18;4.22;;;;;;;19.05;84.43;94713.66;5077368;28;20048;-76
2022/08/15 05:27:02;;;;;;;7.82;4.20;;;;;;;19.02;84.18;94708.97;5084570;28;20119;-76
2022/08/15 05:29:27;;;;;;;6.88;4.00;;;;;;;19.01;84.03;94707.44;5087874;28;20039;-76
2022/08/15 05:31:54;;;;;;;12.20;4.55;;;;;;;19.02;83.97;94703.66;5081394;28;20047;-77
2022/08/15 05:34:19;;;;;;;6.50;3.50;;;;;;;19.13;82.58;94715.34;5083713;28;20060;-76
2022/08/15 05:36:50;;;;;;;5.45;3.35;;;;;;;19.26;81.30;94713.38;5088398;28;20083;-76
2022/08/15 05:39:25;;;;;;;7.00;3.78;;;;;;;19.29;81.54;94709.25;5084072;28;20036;-77
2022/08/15 05:42:12;;;;;;;6.75;3.67;;;;;;;19.36;82.08;94722.78;5083170;28;20048;-78
2022/08/15 05:45:11;;;;;;;8.95;4.43;;;;;;;19.37;82.46;94713.66;5077766;28;20032;-77
2022/08/15 05:47:46;;;;;;;7.25;4.43;;;;;;;19.31;83.03;94717.69;5072655;28;20048;-77
2022/08/15 05:50:30;;;;;;;6.65;3.88;;;;;;;19.30;83.18;94718.81;5084723;28;20062;-77
2022/08/15 05:53:14;;;;;;;7.40;3.92;;;;;;;19.27;83.59;94714.94;5085575;28;20036;-76
2022/08/15 05:55:54;;;;;;;6.85;4.13;;;;;;;19.28;82.01;94715.69;5085561;28;20043;-77
2022/08/15 05:58:42;;;;;;;6.88;3.80;;;;;;;19.29;81.33;94720.69;5083601;28;20611;-76
2022/08/15 06:01:12;;;;;;;6.85;3.95;;;;;;;19.24;80.30;94723.63;5085760;28;20044;-78
2022/08/15 06:03:42;;;;;;;7.85;3.90;;;;;;;19.21;80.46;94733.09;5079101;28;20437;-77
2022/08/15 06:06:13;;;;;;;8.73;4.00;;;;;;;19.34;78.95;94730.34;5080902;28;20398;-77
2022/08/15 06:08:47;;;;;;;7.68;3.53;;;;;;;19.43;79.16;94732.84;5077712;28;20550;-77
2022/08/15 06:11:17;;;;;;;7.85;3.80;;;;;;;19.51;78.28;94735.34;5083913;28;20036;-77
2022/08/15 06:13:57;;;;;;;6.85;3.88;;;;;;;19.54;77.42;94739.97;5087589;28;20048;-78
2022/08/15 06:16:27;;;;;;;6.70;3.70;;;;;;;19.66;78.07;94730.34;5079010;28;20044;-77
2022/08/15 06:18:55;;;;;;;7.72;3.83;;;;;;;19.63;77.94;94731.03;5084523;28;20645;-77
2022/08/15 06:21:41;;;;;;;7.03;3.80;;;;;;;19.58;77.68;94734.72;5080363;28;20110;-77
2022/08/15 06:24:22;;;;;;;9.60;4.43;;;;;;;19.71;77.59;94738.06;5087448;28;20040;-77
2022/08/15 06:27:07;;;;;;;9.15;3.97;;;;;;;19.72;77.07;94739.63;5087633;28;20036;-75
2022/08/15 06:29:48;;;;;;;6.68;4.03;;;;;;;19.78;77.36;94745.47;5082296;28;20032;-78
2022/08/15 06:32:29;;;;;;;7.00;4.70;;;;;;;19.75;77.76;94744.25;5094687;28;20036;-76
2022/08/15 06:34:55;;;;;;;8.15;3.88;;;;;;;19.70;77.60;94757.88;5075954;28;20426;-76
2022/08/15 06:37:32;;;;;;;12.15;4.18;;;;;;;19.73;78.24;94757.19;5085146;28;20093;-76
2022/08/15 06:40:11;;;;;;;9.02;3.58;;;;;;;19.71;78.01;94754.06;5075329;28;20756;-79
2022/08/15 06:42:40;;;;;;;8.32;4.28;;;;;;;19.68;78.41;94754.75;5074167;28;20041;-77
2022/08/15 06:45:17;;;;;;;6.93;4.00;;;;;;;19.80;78.40;94757.38;5072271;28;20037;-76
2022/08/15 06:47:44;;;;;;;6.68;4.22;;;;;;;19.74;78.36;94748.06;5080524;28;20037;-76
2022/08/15 06:50:21;;;;;;;7.53;4.25;;;;;;;19.63;78.77;94753.16;5078526;28;20036;-76
2022/08/15 06:53:03;;;;;;;6.38;4.22;;;;;;;19.70;78.99;94750.63;5083036;28;20040;-78
2022/08/15 06:55:41;;;;;;;6.97;4.35;;;;;;;19.67;78.61;94753.25;5084655;28;20040;-75
2022/08/15 06:58:14;;;;;;;12.52;4.30;;;;;;;19.78;78.70;94759.56;5080725;28;20521;-76
2022/08/15 07:00:45;;;;;;;8.85;4.10;;;;;;;19.74;78.56;94758.75;5086716;28;20058;-75
2022/08/15 07:03:43;;;;;;;6.70;3.95;;;;;;;19.72;77.61;94766.31;5082282;28;20143;-76
2022/08/15 07:06:12;;;;;;;6.20;4.20;;;;;;;19.75;77.53;94760.28;5076097;28;20047;-76
2022/08/15 07:09:01;;;;;;;9.93;3.75;;;;;;;19.71;77.39;94760.19;5082584;28;20040;-78
2022/08/15 07:11:33;;;;;;;8.73;3.92;;;;;;;19.66;77.80;94762.34;5086517;28;20041;-76
2022/08/15 07:14:43;;;;;;;6.20;3.70;;;;;;;19.64;77.93;94759.25;5077037;28;20059;-77
2022/08/15 07:17:18;;;;;;;6.47;3.47;;;;;;;19.62;78.09;94761.50;5063663;28;20064;-76
2022/08/15 07:19:43;;;;;;;5.50;3.63;;;;;;;19.62;78.75;94761.50;5072154;28;20062;-76
2022/08/15 07:22:11;;;;;;;8.18;3.60;;;;;;;19.62;78.67;94766.84;5085691;28;20474;-76
2022/08/15 07:24:37;;;;;;;7.63;3.40;;;;;;;19.57;78.94;94765.22;5080332;28;20673;-79
2022/08/15 07:27:03;;;;;;;7.50;3.97;;;;;;;19.49;80.05;94764.25;5084418;28;20047;-77
2022/08/15 07:29:38;;;;;;;6.60;4.00;;;;;;;19.56;79.67;94767.09;5080176;28;20691;-76
2022/08/15 07:32:12;;;;;;;7.95;3.40;;;;;;;19.54;80.30;94760.56;5077849;28;20067;-77
2022/08/15 07:34:53;;;;;;;6.25;3.78;;;;;;;19.62;78.71;94764.16;5077725;28;20064;-77
2022/08/15 07:37:22;;;;;;;6.55;3.88;;;;;;;19.70;78.97;94763.97;5083627;28;20047;-77
2022/08/15 07:39:56;;;;;;;5.70;4.00;;;;;;;19.76;78.91;94764.50;5073800;28;20036;-79
2022/08/15 07:42:22;;;;;;;7.65;3.83;;;;;;;19.86;78.70;94766.66;5071159;28;20036;-79
2022/08/15 07:44:52;;;;;;;7.28;4.03;;;;;;;19.95;77.80;94757.69;5085568;28;20096;-78
2022/08/15 07:47:25;;;;;;;5.95;4.03;;;;;;;20.09;78.02;94766.03;5085421;28;20170;-79
2022/08/15 07:49:58;;;;;;;8.38;4.13;;;;;;;20.19;77.29;94762.03;5084772;28;20041;-80
2022/08/15 07:52:24;;;;;;;5.55;3.70;;;;;;;20.36;75.84;94755.53;5082078;28;20570;-81
2022/08/15 07:54:53;;;;;;;7.07;4.03;;;;;;;20.43;75.43;94761.03;5075792;28;20044;-80
2022/08/15 07:57:21;;;;;;;7.20;4.18;;;;;;;20.51;75.38;94768.03;5084758;28;20050;-81
2022/08/15 08:00:07;;;;;;;6.68;3.60;;;;;;;20.42;74.51;94764.81;5074067;28;20051;-76
2022/08/15 08:02:41;;;;;;;7.90;3.83;;;;;;;20.55;74.78;94763.53;5082386;28;20114;-78
2022/08/15 08:05:07;;;;;;;7.72;4.28;;;;;;;20.71;74.58;94754.72;5077025;28;20397;-77
2022/08/15 08:07:42;;;;;;;8.13;4.20;;;;;;;20.79;73.98;94748.38;5085485;28;20040;-76
2022/08/15 08:10:38;;;;;;;7.57;4.00;;;;;;;21.04;73.79;94761.44;5084607;28;20040;-76
2022/08/15 08:13:22;;;;;;;8.57;4.18;;;;;;;21.18;71.62;94767.03;5087774;28;20055;-82
2022/08/15 08:15:57;;;;;;;6.05;3.65;;;;;;;21.18;70.62;94772.41;5078503;28;20033;-77
2022/08/15 08:18:41;;;;;;;7.53;4.40;;;;;;;21.31;70.80;94764.22;5084273;28;20047;-79
2022/08/15 08:21:12;;;;;;;9.00;4.20;;;;;;;21.52;70.56;94769.94;5078939;28;20063;-77
2022/08/15 08:23:45;;;;;;;9.88;4.70;;;;;;;21.57;70.27;94774.22;5090729;28;20039;-77
2022/08/15 08:26:27;;;;;;;6.65;4.45;;;;;;;21.50;69.95;94772.16;5089272;28;20066;-76
2022/08/15 08:29:14;;;;;;;10.60;4.75;;;;;;;21.43;69.64;94772.03;5089287;28;20036;-79
2022/08/15 08:31:52;;;;;;;7.93;4.55;;;;;;;21.49;70.10;94775.97;5088277;28;20122;-76
2022/08/15 08:34:33;;;;;;;9.10;3.92;;;;;;;21.33;69.52;94773.41;5085391;28;20040;-76
2022/08/15 08:37:25;;;;;;;11.75;4.50;;;;;;;21.39;69.27;94776.56;5088906;28;20043;-77
2022/08/15 08:41:24;;;;;;;6.60;4.38;;;;;;;21.36;69.58;94777.28;5092763;28;20047;-77
2022/08/15 08:42:53;;;;;;;7.57;4.30;;;;;;;21.41;69.22;94763.63;5082511;28;20537;-78
2022/08/15 08:45:42;;;;;;;7.20;4.10;;;;;;;21.22;69.77;94767.88;5091963;28;20059;-76
2022/08/15 08:48:38;;;;;;;14.40;4.80;;;;;;;21.17;69.93;94770.84;5072054;28;20072;-77
2022/08/15 08:51:14;;;;;;;7.03;4.43;;;;;;;21.20;70.03;94764.78;5084224;28;20097;-76
2022/08/15 08:54:07;;;;;;;8.25;4.40;;;;;;;21.25;68.94;94767.16;5084700;28;20040;-76
2022/08/15 08:56:38;;;;;;;7.63;4.72;;;;;;;21.28;69.07;94771.03;5088652;28;20480;-76
2022/08/15 08:59:25;;;;;;;8.27;4.70;;;;;;;21.33;69.06;94767.28;5078659;28;20176;-76
2022/08/15 09:02:14;;;;;;;8.20;4.53;;;;;;;21.41;69.65;94774.31;5091884;28;20509;-76
2022/08/15 09:04:45;;;;;;;10.38;4.55;;;;;;;21.57;67.83;94771.53;5086334;28;20052;-76
2022/08/15 09:07:19;;;;;;;6.18;4.40;;;;;;;21.44;67.81;94768.25;5089194;28;20036;-75
2022/08/15 09:09:46;;;;;;;7.15;4.70;;;;;;;21.49;69.09;94765.25;5091883;28;20059;-76
2022/08/15 09:15:11;;;;;;;10.05;4.28;;;;;;;21.32;69.03;94771.09;5091680;28;20044;-76
2022/08/15 09:17:39;;;;;;;7.22;4.30;;;;;;;21.33;68.73;94772.66;5091141;28;20044;-76
2022/08/15 09:20:07;;;;;;;6.43;4.45;;;;;;;21.21;68.72;94771.69;5090904;28;20097;-76
2022/08/15 09:22:33;;;;;;;6.40;3.83;;;;;;;21.26;68.25;94774.06;5078443;28;20039;-76
2022/08/15 09:24:59;;;;;;;6.20;4.07;;;;;;;21.43;68.46;94772.03;5091591;28;20489;-76
2022/08/15 09:27:30;;;;;;;5.65;3.70;;;;;;;21.54;67.39;94773.03;5091202;28;20064;-75
2022/08/15 09:30:05;;;;;;;9.63;4.18;;;;;;;21.58;68.00;94768.50;5087998;28;20057;-76
2022/08/15 09:32:40;;;;;;;6.88;3.95;;;;;;;21.55;67.71;94761.19;5090106;28;20409;-76
2022/08/15 09:35:43;;;;;;;6.72;4.25;;;;;;;21.63;67.71;94770.88;5091266;28;20052;-76
2022/08/15 09:38:37;;;;;;;8.57;4.90;;;;;;;21.81;65.76;94765.03;5089844;28;20048;-76
2022/08/15 09:41:42;;;;;;;12.43;4.05;;;;;;;21.95;65.67;94765.25;5090006;28;20047;-76
2022/08/15 09:44:27;;;;;;;6.20;4.68;;;;;;;21.92;65.82;94771.34;5084930;28;20101;-76
2022/08/15 09:47:27;;;;;;;7.75;4.75;;;;;;;22.01;65.05;94764.94;5090930;28;20042;-76
2022/08/15 09:50:31;;;;;;;7.43;4.50;;;;;;;22.01;64.22;94772.97;5090885;28;20519;-75
2022/08/15 09:53:06;;;;;;;10.40;4.03;;;;;;;22.07;64.25;94774.22;5073203;28;20501;-75
2022/08/15 09:55:46;;;;;;;9.85;4.60;;;;;;;22.28;63.85;94769.16;5091482;28;20051;-75
2022/08/15 09:58:22;;;;;;;8.18;4.15;;;;;;;22.67;62.68;94779.63;5092361;28;20042;-75
2022/08/15 10:00:52;;;;;;;7.65;3.95;;;;;;;22.88;61.57;94772.97;5080390;28;20900;-75
2022/08/15 10:03:49;;;;;;;8.18;4.38;;;;;;;23.13;59.94;94764.44;5092274;28;20047;-76
2022/08/15 10:06:17;;;;;;;7.20;3.58;;;;;;;23.27;58.12;94769.94;5092740;28;20063;-76
2022/08/15 10:08:52;;;;;;;9.45;4.07;;;;;;;23.51;56.73;94778.59;5090504;28;20861;-75
2022/08/15 10:11:52;;;;;;;11.02;3.83;;;;;;;23.59;57.37;94772.16;5089272;28;20056;-76
2022/08/15 10:14:20;;;;;;;7.40;4.13;;;;;;;23.76;57.52;94761.91;5077744;28;20409;-76
2022/08/15 10:16:55;;;;;;;8.00;4.20;;;;;;;23.89;55.30;94765.88;5091416;28;20486;-76
2022/08/15 10:19:37;;;;;;;5.43;3.97;;;;;;;23.76;55.87;94756.53;5091089;28;20047;-75
2022/08/15 10:22:24;;;;;;;6.95;4.25;;;;;;;23.67;57.55;94765.69;5086494;28;20043;-75
2022/08/15 10:25:28;;;;;;;7.45;4.50;;;;;;;24.09;56.73;94762.94;5090768;28;20118;-75
2022/08/15 10:28:00;;;;;;;7.63;4.40;;;;;;;23.92;55.18;94757.09;5077594;28;20047;-75
2022/08/15 10:30:32;;;;;;;7.03;4.38;;;;;;;23.99;54.34;94762.50;5089258;28;20032;-76
2022/08/15 10:33:00;;;;;;;6.40;4.15;;;;;;;24.32;53.87;94765.38;5092317;28;20608;-75
2022/08/15 10:35:45;;;;;;;8.98;4.20;;;;;;;24.37;54.64;94752.34;5092009;28;20035;-75
2022/08/15 10:38:19;;;;;;;8.43;4.18;;;;;;;24.14;53.64;94757.22;5079136;28;20044;-74
2022/08/15 10:40:55;;;;;;;5.95;4.20;;;;;;;24.35;54.34;94762.72;5092733;28;20043;-75
2022/08/15 10:43:43;;;;;;;7.88;3.97;;;;;;;24.29;51.93;94756.13;5080563;28;20085;-76
2022/08/15 10:46:29;;;;;;;8.10;3.97;;;;;;;24.54;52.36;94760.88;5091329;28;20052;-76
2022/08/15 10:49:19;;;;;;;5.93;3.58;;;;;;;24.94;51.15;94751.06;5090494;28;20052;-76
2022/08/15 10:52:01;;;;;;;5.75;3.80;;;;;;;25.17;50.48;94741.84;5089388;28;20067;-76
2022/08/15 10:54:56;;;;;;;6.32;3.95;;;;;;;25.12;50.60;94743.00;5089874;28;20047;-76
2022/08/15 10:57:26;;;;;;;5.20;3.53;;;;;;;25.63;49.09;94743.88;5077906;28;20036;-76
2022/08/15 10:59:54;;;;;;;5.97;3.30;;;;;;;26.19;47.40;94743.41;5082859;28;20097;-77
2022/08/15 11:02:45;;;;;;;5.28;3.47;;;;;;;25.96;48.04;94744.63;5089836;28;20074;-76
2022/08/15 11:05:15;;;;;;;6.15;3.83;;;;;;;25.90;48.58;94748.84;5088990;28;20406;-77
2022/08/15 11:07:49;;;;;;;6.47;3.72;;;;;;;26.53;46.79;94745.63;5088469;28;20043;-76
2022/08/15 11:10:17;;;;;;;8.45;3.85;;;;;;;27.18;46.04;94739.94;5089470;28;20418;-77
2022/08/15 11:12:46;;;;;;;6.03;3.88;;;;;;;28.06;44.97;94750.50;5083211;28;20059;-77
2022/08/15 11:15:19;;;;;;;5.22;3.70;;;;;;;27.58;44.74;94745.88;5089621;28;20044;-77
2022/08/15 11:17:47;;;;;;;;;;;;;;;27.00;44.60;94746.22;5077684;28;20036;-77
2022/08/15 11:20:21;;;;;;;5.05;3.40;;;;;;;27.30;43.50;94736.78;5078695;28;20003;-77
2022/08/15 11:22:58;;;;;;;5.40;3.30;;;;;;;27.38;42.74;94732.88;5077170;28;20028;-77
2022/08/15 11:25:28;;;;;;;5.07;3.30;;;;;;;28.03;43.38;94735.09;5090546;28;20111;-77
2022/08/15 11:28:07;;;;;;;7.93;4.10;;;;;;;28.39;41.96;94731.22;5090433;28;20048;-77
2022/08/15 11:30:37;;;;;;;5.25;2.97;;;;;;;27.98;41.09;94730.09;5086928;28;20122;-76
2022/08/15 11:33:18;;;;;;;6.47;3.60;;;;;;;27.97;40.96;94728.53;5077054;28;20063;-77
2022/08/15 11:35:45;;;;;;;5.70;3.30;;;;;;;27.57;40.66;94733.50;5089656;28;20555;-77
2022/08/15 11:38:16;;;;;;;5.45;3.30;;;;;;;28.14;40.04;94722.22;5081513;28;20059;-77
2022/08/15 11:40:42;;;;;;;5.05;3.08;;;;;;;27.11;41.43;94725.34;5090967;28;20036;-76
2022/08/15 11:43:15;;;;;;;15.98;4.07;;;;;;;26.82;41.80;94726.66;5080461;28;20533;-76
2022/08/15 11:45:46;;;;;;;5.20;3.10;;;;;;;26.62;41.80;94719.00;5088911;28;20032;-77
2022/08/15 11:48:39;;;;;;;4.32;3.08;;;;;;;26.24;43.49;94718.75;5088825;28;20044;-77
2022/08/15 11:51:21;;;;;;;7.32;3.10;;;;;;;25.75;43.56;94727.28;5087718;28;20055;-76
2022/08/15 11:54:04;;;;;;;6.15;3.10;;;;;;;25.41;46.00;94719.63;5089742;28;20044;-77
2022/08/15 11:57:04;;;;;;;5.80;2.80;;;;;;;25.14;44.69;94721.09;5090212;28;20059;-76
2022/08/15 11:59:35;;;;;;;4.65;3.25;;;;;;;24.61;46.43;94712.53;5084203;28;20074;-76
2022/08/15 12:02:13;;;;;;;5.53;3.40;;;;;;;24.72;47.68;94713.31;5093578;28;20036;-77
2022/08/15 12:04:44;;;;;;;6.32;3.00;;;;;;;24.98;46.01;94713.38;5092303;28;20036;-76
2022/08/15 12:07:14;;;;;;;4.80;3.05;;;;;;;25.10;46.71;94704.16;5092415;28;20051;-77
2022/08/15 12:09:49;;;;;;;5.05;2.83;;;;;;;25.22;45.56;94706.50;5093049;28;20052;-77
2022/08/15 12:12:29;;;;;;;6.07;3.00;;;;;;;25.10;46.16;94693.38;5092309;28;20036;-76